< < Back
Terminal Aerodrome Forecast


Current Version              Previous Versions:   1  2  3  4  5  6  7  8  9  

Terminal Aerodrome Forecast

426
FTUS42 KCHS 311511 AAB
TAFSAV
TAF AMD
KSAV 311511Z 3115/0112 34006KT P6SM OVC008
     FM311630 34005KT P6SM BKN025
     FM311800 VRB05KT P6SM SCT025 BKN040
     FM312100 16007KT P6SM FEW020 BKN060
     FM010000 21004KT P6SM SCT015=

Latest METAR

981
SAUS80 KWBC 010800 RRG
MTRSAV
METAR KSAV 010753Z AUTO 35003KT 7SM BKN090 23/22 A3006 RMK AO2 SLP179
T02280217 TSNO $


USA.gov is the U.S. government's official web portal to all federal, state and local government web resources and services.